Terminal Aerodrome Forecast
Issued by NWS Melbourne, FL

Home | Current Version | Previous Version | Text Only | Print | Product List | Glossary On
Versions: 1 2 3 4 5 6 7 8 9 10 11 12 13 14
000
FTUS42 KMLB 240523
TAFVRB
TAF
KVRB 240523Z 2406/2506 07011KT P6SM VCSH BKN020 BKN025
      TEMPO 2406/2409 -SHRA SCT020 SCT025
     FM241300 10012KT P6SM SCT040
     FM241600 11015G22KT P6SM FEW040
     FM250000 09015KT P6SM FEW030 SCT250=

USA.gov is the U.S. government's official web portal to all federal, state and local government web resources and services.